sensor_id;sensor_type;location;lat;lon;timestamp;P1;durP1;ratioP1;P2;durP2;ratioP2
33160;SDS011;19522;45.656;11.302;2023-08-17T00:02:17;10.43;;;9.45;;
33160;SDS011;19522;45.656;11.302;2023-08-17T00:04:42;10.98;;;9.45;;
33160;SDS011;19522;45.656;11.302;2023-08-17T00:07:08;13.07;;;9.75;;
33160;SDS011;19522;45.656;11.302;2023-08-17T00:09:33;11.70;;;9.50;;
33160;SDS011;19522;45.656;11.302;2023-08-17T00:11:59;11.13;;;9.98;;
33160;SDS011;19522;45.656;11.302;2023-08-17T00:14:24;11.57;;;10.38;;
33160;SDS011;19522;45.656;11.302;2023-08-17T00:16:50;11.13;;;9.90;;
33160;SDS011;19522;45.656;11.302;2023-08-17T00:19:16;11.93;;;10.63;;
33160;SDS011;19522;45.656;11.302;2023-08-17T00:21:41;11.48;;;10.00;;
33160;SDS011;19522;45.656;11.302;2023-08-17T00:24:07;11.13;;;9.73;;
33160;SDS011;19522;45.656;11.302;2023-08-17T00:26:33;10.30;;;9.27;;
33160;SDS011;19522;45.656;11.302;2023-08-17T00:28:58;10.98;;;9.68;;
33160;SDS011;19522;45.656;11.302;2023-08-17T00:31:24;10.70;;;9.52;;
33160;SDS011;19522;45.656;11.302;2023-08-17T00:33:49;10.38;;;9.35;;
33160;SDS011;19522;45.656;11.302;2023-08-17T00:36:15;11.32;;;10.00;;
33160;SDS011;19522;45.656;11.302;2023-08-17T00:38:40;11.93;;;9.52;;
33160;SDS011;19522;45.656;11.302;2023-08-17T00:41:06;11.02;;;9.77;;
33160;SDS011;19522;45.656;11.302;2023-08-17T00:43:31;11.35;;;10.25;;
33160;SDS011;19522;45.656;11.302;2023-08-17T00:45:57;10.70;;;9.52;;
33160;SDS011;19522;45.656;11.302;2023-08-17T00:48:23;11.57;;;10.48;;
33160;SDS011;19522;45.656;11.302;2023-08-17T00:50:50;11.75;;;10.55;;
33160;SDS011;19522;45.656;11.302;2023-08-17T00:53:17;11.38;;;10.38;;
33160;SDS011;19522;45.656;11.302;2023-08-17T00:55:43;11.52;;;9.73;;
33160;SDS011;19522;45.656;11.302;2023-08-17T00:58:09;11.55;;;10.45;;
33160;SDS011;19522;45.656;11.302;2023-08-17T01:00:35;11.55;;;10.32;;
33160;SDS011;19522;45.656;11.302;2023-08-17T01:03:00;12.20;;;9.80;;
33160;SDS011;19522;45.656;11.302;2023-08-17T01:05:26;12.30;;;10.93;;
33160;SDS011;19522;45.656;11.302;2023-08-17T01:07:51;10.65;;;9.68;;
33160;SDS011;19522;45.656;11.302;2023-08-17T01:10:17;10.55;;;9.55;;
33160;SDS011;19522;45.656;11.302;2023-08-17T01:15:55;11.20;;;9.98;;
33160;SDS011;19522;45.656;11.302;2023-08-17T01:18:25;12.07;;;9.75;;
33160;SDS011;19522;45.656;11.302;2023-08-17T01:20:54;11.35;;;10.18;;
33160;SDS011;19522;45.656;11.302;2023-08-17T01:23:24;11.48;;;10.38;;
33160;SDS011;19522;45.656;11.302;2023-08-17T01:25:50;11.18;;;10.05;;
33160;SDS011;19522;45.656;11.302;2023-08-17T01:28:15;12.18;;;9.95;;
33160;SDS011;19522;45.656;11.302;2023-08-17T01:33:12;13.07;;;10.88;;
33160;SDS011;19522;45.656;11.302;2023-08-17T01:35:50;11.25;;;10.20;;
33160;SDS011;19522;45.656;11.302;2023-08-17T01:38:24;11.52;;;10.38;;
33160;SDS011;19522;45.656;11.302;2023-08-17T01:40:52;11.63;;;10.35;;
33160;SDS011;19522;45.656;11.302;2023-08-17T01:43:18;11.40;;;10.30;;
33160;SDS011;19522;45.656;11.302;2023-08-17T01:45:45;11.10;;;10.10;;
33160;SDS011;19522;45.656;11.302;2023-08-17T01:48:11;10.63;;;9.48;;
33160;SDS011;19522;45.656;11.302;2023-08-17T01:50:36;11.75;;;10.48;;
33160;SDS011;19522;45.656;11.302;2023-08-17T01:53:02;11.45;;;10.20;;
33160;SDS011;19522;45.656;11.302;2023-08-17T01:55:28;11.85;;;10.63;;
33160;SDS011;19522;45.656;11.302;2023-08-17T01:57:53;13.63;;;10.55;;
33160;SDS011;19522;45.656;11.302;2023-08-17T02:00:19;11.80;;;10.50;;
33160;SDS011;19522;45.656;11.302;2023-08-17T02:02:47;11.85;;;10.38;;
33160;SDS011;19522;45.656;11.302;2023-08-17T02:05:12;12.20;;;10.15;;
33160;SDS011;19522;45.656;11.302;2023-08-17T02:07:38;12.35;;;11.00;;
33160;SDS011;19522;45.656;11.302;2023-08-17T02:10:03;12.18;;;10.80;;
33160;SDS011;19522;45.656;11.302;2023-08-17T02:12:29;11.98;;;10.63;;
33160;SDS011;19522;45.656;11.302;2023-08-17T02:14:55;12.27;;;11.05;;
33160;SDS011;19522;45.656;11.302;2023-08-17T02:17:21;13.18;;;10.75;;
33160;SDS011;19522;45.656;11.302;2023-08-17T02:19:47;13.13;;;11.18;;
33160;SDS011;19522;45.656;11.302;2023-08-17T02:22:15;12.23;;;10.95;;
33160;SDS011;19522;45.656;11.302;2023-08-17T02:24:41;11.27;;;10.07;;
33160;SDS011;19522;45.656;11.302;2023-08-17T02:27:07;12.25;;;11.05;;
33160;SDS011;19522;45.656;11.302;2023-08-17T02:29:34;11.55;;;10.35;;
33160;SDS011;19522;45.656;11.302;2023-08-17T02:31:59;11.63;;;10.43;;
33160;SDS011;19522;45.656;11.302;2023-08-17T02:34:25;11.80;;;10.60;;
33160;SDS011;19522;45.656;11.302;2023-08-17T02:36:50;12.20;;;10.75;;
33160;SDS011;19522;45.656;11.302;2023-08-17T02:39:16;13.38;;;10.73;;
33160;SDS011;19522;45.656;11.302;2023-08-17T02:41:41;12.68;;;11.35;;
33160;SDS011;19522;45.656;11.302;2023-08-17T02:44:07;13.57;;;11.80;;
33160;SDS011;19522;45.656;11.302;2023-08-17T02:46:32;13.05;;;11.70;;
33160;SDS011;19522;45.656;11.302;2023-08-17T02:48:58;13.23;;;12.02;;
33160;SDS011;19522;45.656;11.302;2023-08-17T02:51:26;12.25;;;11.05;;
33160;SDS011;19522;45.656;11.302;2023-08-17T02:53:52;13.20;;;11.90;;
33160;SDS011;19522;45.656;11.302;2023-08-17T02:56:17;13.10;;;11.80;;
33160;SDS011;19522;45.656;11.302;2023-08-17T02:58:43;13.13;;;11.82;;
33160;SDS011;19522;45.656;11.302;2023-08-17T03:01:08;13.55;;;11.27;;
33160;SDS011;19522;45.656;11.302;2023-08-17T03:03:34;12.77;;;11.48;;
33160;SDS011;19522;45.656;11.302;2023-08-17T03:06:04;12.00;;;10.85;;
33160;SDS011;19522;45.656;11.302;2023-08-17T03:08:30;12.75;;;11.27;;
33160;SDS011;19522;45.656;11.302;2023-08-17T03:10:55;12.95;;;11.73;;
33160;SDS011;19522;45.656;11.302;2023-08-17T03:13:21;12.30;;;10.65;;
33160;SDS011;19522;45.656;11.302;2023-08-17T03:15:47;12.32;;;11.02;;
33160;SDS011;19522;45.656;11.302;2023-08-17T03:18:12;11.43;;;10.32;;
33160;SDS011;19522;45.656;11.302;2023-08-17T03:20:37;12.68;;;11.32;;
33160;SDS011;19522;45.656;11.302;2023-08-17T03:23:03;12.10;;;10.88;;
33160;SDS011;19522;45.656;11.302;2023-08-17T03:25:32;12.80;;;11.45;;
33160;SDS011;19522;45.656;11.302;2023-08-17T03:27:58;14.38;;;12.98;;
33160;SDS011;19522;45.656;11.302;2023-08-17T03:30:24;13.00;;;11.63;;
33160;SDS011;19522;45.656;11.302;2023-08-17T03:32:50;13.65;;;12.20;;
33160;SDS011;19522;45.656;11.302;2023-08-17T03:35:15;14.70;;;11.52;;
33160;SDS011;19522;45.656;11.302;2023-08-17T03:37:41;13.73;;;12.25;;
33160;SDS011;19522;45.656;11.302;2023-08-17T03:40:07;16.13;;;13.05;;
33160;SDS011;19522;45.656;11.302;2023-08-17T03:42:33;13.40;;;12.00;;
33160;SDS011;19522;45.656;11.302;2023-08-17T03:44:58;14.50;;;11.85;;
33160;SDS011;19522;45.656;11.302;2023-08-17T03:47:24;12.85;;;11.55;;
33160;SDS011;19522;45.656;11.302;2023-08-17T03:49:49;13.85;;;12.48;;
33160;SDS011;19522;45.656;11.302;2023-08-17T03:52:14;13.68;;;12.27;;
33160;SDS011;19522;45.656;11.302;2023-08-17T03:54:40;12.63;;;11.32;;
33160;SDS011;19522;45.656;11.302;2023-08-17T03:57:06;11.65;;;10.55;;
33160;SDS011;19522;45.656;11.302;2023-08-17T03:59:31;12.23;;;11.10;;
33160;SDS011;19522;45.656;11.302;2023-08-17T04:01:57;12.63;;;11.32;;
33160;SDS011;19522;45.656;11.302;2023-08-17T04:04:22;12.85;;;11.55;;
33160;SDS011;19522;45.656;11.302;2023-08-17T04:06:48;12.55;;;11.35;;
33160;SDS011;19522;45.656;11.302;2023-08-17T04:09:13;12.73;;;11.48;;
33160;SDS011;19522;45.656;11.302;2023-08-17T04:11:39;12.52;;;11.23;;
33160;SDS011;19522;45.656;11.302;2023-08-17T04:14:04;13.75;;;12.38;;
33160;SDS011;19522;45.656;11.302;2023-08-17T04:16:30;14.05;;;10.93;;
33160;SDS011;19522;45.656;11.302;2023-08-17T04:18:55;12.77;;;11.48;;
33160;SDS011;19522;45.656;11.302;2023-08-17T04:21:21;12.95;;;11.68;;
33160;SDS011;19522;45.656;11.302;2023-08-17T04:23:46;13.65;;;12.27;;
33160;SDS011;19522;45.656;11.302;2023-08-17T04:26:12;12.35;;;11.05;;
33160;SDS011;19522;45.656;11.302;2023-08-17T04:28:38;13.05;;;11.20;;
33160;SDS011;19522;45.656;11.302;2023-08-17T04:31:03;13.10;;;11.75;;
33160;SDS011;19522;45.656;11.302;2023-08-17T04:33:29;12.88;;;11.57;;
33160;SDS011;19522;45.656;11.302;2023-08-17T04:35:55;12.35;;;11.05;;
33160;SDS011;19522;45.656;11.302;2023-08-17T04:38:21;12.43;;;11.23;;
33160;SDS011;19522;45.656;11.302;2023-08-17T04:40:46;12.30;;;11.15;;
33160;SDS011;19522;45.656;11.302;2023-08-17T04:43:12;12.32;;;10.82;;
33160;SDS011;19522;45.656;11.302;2023-08-17T04:45:37;13.48;;;12.13;;
33160;SDS011;19522;45.656;11.302;2023-08-17T04:48:03;12.18;;;10.95;;
33160;SDS011;19522;45.656;11.302;2023-08-17T04:50:29;12.45;;;10.82;;
33160;SDS011;19522;45.656;11.302;2023-08-17T04:52:54;12.50;;;11.30;;
33160;SDS011;19522;45.656;11.302;2023-08-17T04:55:20;12.35;;;11.05;;
33160;SDS011;19522;45.656;11.302;2023-08-17T04:57:45;12.60;;;11.32;;
33160;SDS011;19522;45.656;11.302;2023-08-17T05:00:11;12.65;;;11.48;;
33160;SDS011;19522;45.656;11.302;2023-08-17T05:02:39;12.50;;;11.30;;
33160;SDS011;19522;45.656;11.302;2023-08-17T05:05:04;11.90;;;10.80;;
33160;SDS011;19522;45.656;11.302;2023-08-17T05:07:31;13.10;;;11.30;;
33160;SDS011;19522;45.656;11.302;2023-08-17T05:09:57;11.68;;;10.48;;
33160;SDS011;19522;45.656;11.302;2023-08-17T05:12:23;12.10;;;10.90;;
33160;SDS011;19522;45.656;11.302;2023-08-17T05:14:48;12.15;;;11.05;;
33160;SDS011;19522;45.656;11.302;2023-08-17T05:17:14;12.00;;;10.88;;
33160;SDS011;19522;45.656;11.302;2023-08-17T05:19:39;12.13;;;10.82;;
33160;SDS011;19522;45.656;11.302;2023-08-17T05:22:09;11.77;;;10.57;;
33160;SDS011;19522;45.656;11.302;2023-08-17T05:24:36;13.52;;;11.55;;
33160;SDS011;19522;45.656;11.302;2023-08-17T05:27:02;12.80;;;11.50;;
33160;SDS011;19522;45.656;11.302;2023-08-17T05:29:27;12.55;;;11.32;;
33160;SDS011;19522;45.656;11.302;2023-08-17T05:31:53;12.38;;;11.07;;
33160;SDS011;19522;45.656;11.302;2023-08-17T05:34:19;12.15;;;10.95;;
33160;SDS011;19522;45.656;11.302;2023-08-17T05:36:44;14.07;;;11.35;;
33160;SDS011;19522;45.656;11.302;2023-08-17T05:39:10;12.02;;;10.93;;
33160;SDS011;19522;45.656;11.302;2023-08-17T05:41:35;12.50;;;10.93;;
33160;SDS011;19522;45.656;11.302;2023-08-17T05:44:01;11.80;;;10.60;;
33160;SDS011;19522;45.656;11.302;2023-08-17T05:46:26;12.65;;;11.32;;
33160;SDS011;19522;45.656;11.302;2023-08-17T05:48:52;12.63;;;10.25;;
33160;SDS011;19522;45.656;11.302;2023-08-17T05:51:18;11.52;;;10.40;;
33160;SDS011;19522;45.656;11.302;2023-08-17T05:53:43;11.23;;;10.13;;
33160;SDS011;19522;45.656;11.302;2023-08-17T05:56:08;12.60;;;11.30;;
33160;SDS011;19522;45.656;11.302;2023-08-17T05:58:34;12.25;;;10.65;;
33160;SDS011;19522;45.656;11.302;2023-08-17T06:01:09;15.43;;;11.32;;
33160;SDS011;19522;45.656;11.302;2023-08-17T06:03:36;12.70;;;11.40;;
33160;SDS011;19522;45.656;11.302;2023-08-17T06:06:03;13.15;;;11.82;;
33160;SDS011;19522;45.656;11.302;2023-08-17T06:08:29;12.15;;;10.98;;
33160;SDS011;19522;45.656;11.302;2023-08-17T06:10:55;11.93;;;10.63;;
33160;SDS011;19522;45.656;11.302;2023-08-17T06:13:20;12.50;;;10.75;;
33160;SDS011;19522;45.656;11.302;2023-08-17T06:15:46;15.02;;;11.27;;
33160;SDS011;19522;45.656;11.302;2023-08-17T06:18:12;11.55;;;10.45;;
33160;SDS011;19522;45.656;11.302;2023-08-17T06:20:37;11.65;;;10.65;;
33160;SDS011;19522;45.656;11.302;2023-08-17T06:23:03;12.82;;;10.45;;
33160;SDS011;19522;45.656;11.302;2023-08-17T06:25:29;11.88;;;10.68;;
33160;SDS011;19522;45.656;11.302;2023-08-17T06:27:54;10.60;;;9.50;;
33160;SDS011;19522;45.656;11.302;2023-08-17T06:30:20;11.63;;;9.40;;
33160;SDS011;19522;45.656;11.302;2023-08-17T06:32:46;11.95;;;10.60;;
33160;SDS011;19522;45.656;11.302;2023-08-17T06:35:12;12.40;;;10.52;;
33160;SDS011;19522;45.656;11.302;2023-08-17T06:37:37;11.35;;;10.15;;
33160;SDS011;19522;45.656;11.302;2023-08-17T06:40:03;10.68;;;9.68;;
33160;SDS011;19522;45.656;11.302;2023-08-17T06:42:30;11.23;;;9.98;;
33160;SDS011;19522;45.656;11.302;2023-08-17T06:44:56;11.52;;;9.90;;
33160;SDS011;19522;45.656;11.302;2023-08-17T06:47:21;12.48;;;10.50;;
33160;SDS011;19522;45.656;11.302;2023-08-17T06:49:47;12.52;;;10.38;;
33160;SDS011;19522;45.656;11.302;2023-08-17T06:52:12;11.27;;;10.10;;
33160;SDS011;19522;45.656;11.302;2023-08-17T06:54:38;12.55;;;10.20;;
33160;SDS011;19522;45.656;11.302;2023-08-17T06:57:03;11.40;;;10.25;;
33160;SDS011;19522;45.656;11.302;2023-08-17T06:59:29;10.75;;;9.27;;
33160;SDS011;19522;45.656;11.302;2023-08-17T07:02:01;10.40;;;9.45;;
33160;SDS011;19522;45.656;11.302;2023-08-17T07:04:26;12.05;;;9.93;;
33160;SDS011;19522;45.656;11.302;2023-08-17T07:06:52;11.02;;;9.93;;
33160;SDS011;19522;45.656;11.302;2023-08-17T07:09:17;12.23;;;9.75;;
33160;SDS011;19522;45.656;11.302;2023-08-17T07:11:44;10.57;;;9.48;;
33160;SDS011;19522;45.656;11.302;2023-08-17T07:14:09;12.63;;;10.10;;
33160;SDS011;19522;45.656;11.302;2023-08-17T07:16:35;10.10;;;9.05;;
33160;SDS011;19522;45.656;11.302;2023-08-17T07:19:00;10.20;;;9.20;;
33160;SDS011;19522;45.656;11.302;2023-08-17T07:21:29;12.55;;;9.75;;
33160;SDS011;19522;45.656;11.302;2023-08-17T07:23:54;10.50;;;9.35;;
33160;SDS011;19522;45.656;11.302;2023-08-17T07:26:20;10.10;;;9.02;;
33160;SDS011;19522;45.656;11.302;2023-08-17T07:28:48;10.52;;;9.32;;
33160;SDS011;19522;45.656;11.302;2023-08-17T07:31:13;9.27;;;8.27;;
33160;SDS011;19522;45.656;11.302;2023-08-17T07:33:39;10.82;;;9.23;;
33160;SDS011;19522;45.656;11.302;2023-08-17T07:36:05;10.00;;;8.57;;
33160;SDS011;19522;45.656;11.302;2023-08-17T07:38:30;12.15;;;8.50;;
33160;SDS011;19522;45.656;11.302;2023-08-17T07:40:56;8.95;;;8.05;;
33160;SDS011;19522;45.656;11.302;2023-08-17T07:43:22;8.93;;;8.13;;
33160;SDS011;19522;45.656;11.302;2023-08-17T07:45:57;8.98;;;8.07;;
33160;SDS011;19522;45.656;11.302;2023-08-17T07:48:23;11.85;;;8.05;;
33160;SDS011;19522;45.656;11.302;2023-08-17T07:50:51;9.00;;;7.63;;
33160;SDS011;19522;45.656;11.302;2023-08-17T07:53:18;8.77;;;7.60;;
33160;SDS011;19522;45.656;11.302;2023-08-17T07:55:44;10.73;;;7.72;;
33160;SDS011;19522;45.656;11.302;2023-08-17T07:58:10;8.80;;;7.90;;
33160;SDS011;19522;45.656;11.302;2023-08-17T08:00:35;8.90;;;8.02;;
33160;SDS011;19522;45.656;11.302;2023-08-17T08:03:00;9.32;;;8.38;;
33160;SDS011;19522;45.656;11.302;2023-08-17T08:05:29;9.45;;;8.45;;
33160;SDS011;19522;45.656;11.302;2023-08-17T08:07:54;10.48;;;8.45;;
33160;SDS011;19522;45.656;11.302;2023-08-17T08:10:20;9.32;;;8.52;;
33160;SDS011;19522;45.656;11.302;2023-08-17T08:12:45;11.43;;;8.63;;
33160;SDS011;19522;45.656;11.302;2023-08-17T08:15:11;9.43;;;8.38;;
33160;SDS011;19522;45.656;11.302;2023-08-17T08:17:36;9.45;;;8.55;;
33160;SDS011;19522;45.656;11.302;2023-08-17T08:20:03;9.18;;;7.90;;
33160;SDS011;19522;45.656;11.302;2023-08-17T08:22:29;8.88;;;7.97;;
33160;SDS011;19522;45.656;11.302;2023-08-17T08:24:54;12.85;;;8.93;;
33160;SDS011;19522;45.656;11.302;2023-08-17T08:27:20;10.80;;;8.23;;
33160;SDS011;19522;45.656;11.302;2023-08-17T08:29:45;10.00;;;8.05;;
33160;SDS011;19522;45.656;11.302;2023-08-17T08:32:11;9.98;;;7.80;;
33160;SDS011;19522;45.656;11.302;2023-08-17T08:34:36;9.07;;;8.13;;
33160;SDS011;19522;45.656;11.302;2023-08-17T08:37:02;9.25;;;8.40;;
33160;SDS011;19522;45.656;11.302;2023-08-17T08:39:28;8.88;;;7.97;;
33160;SDS011;19522;45.656;11.302;2023-08-17T08:41:53;11.60;;;8.68;;
33160;SDS011;19522;45.656;11.302;2023-08-17T08:44:19;9.70;;;8.80;;
33160;SDS011;19522;45.656;11.302;2023-08-17T08:46:45;9.02;;;7.97;;
33160;SDS011;19522;45.656;11.302;2023-08-17T08:49:11;11.90;;;8.10;;
33160;SDS011;19522;45.656;11.302;2023-08-17T08:51:43;10.90;;;8.82;;
33160;SDS011;19522;45.656;11.302;2023-08-17T08:54:14;11.10;;;8.30;;
33160;SDS011;19522;45.656;11.302;2023-08-17T08:59:14;9.10;;;8.20;;
33160;SDS011;19522;45.656;11.302;2023-08-17T09:01:44;11.32;;;8.50;;
33160;SDS011;19522;45.656;11.302;2023-08-17T09:04:11;9.25;;;8.35;;
33160;SDS011;19522;45.656;11.302;2023-08-17T09:06:36;11.35;;;8.77;;
33160;SDS011;19522;45.656;11.302;2023-08-17T09:09:03;11.68;;;9.05;;
33160;SDS011;19522;45.656;11.302;2023-08-17T09:11:31;9.23;;;8.32;;
33160;SDS011;19522;45.656;11.302;2023-08-17T09:13:56;11.10;;;8.20;;
33160;SDS011;19522;45.656;11.302;2023-08-17T09:16:21;9.35;;;7.85;;
33160;SDS011;19522;45.656;11.302;2023-08-17T09:18:47;9.20;;;8.23;;
33160;SDS011;19522;45.656;11.302;2023-08-17T09:21:22;9.05;;;8.10;;
33160;SDS011;19522;45.656;11.302;2023-08-17T09:23:57;9.23;;;8.27;;
33160;SDS011;19522;45.656;11.302;2023-08-17T09:26:23;10.50;;;8.60;;
33160;SDS011;19522;45.656;11.302;2023-08-17T09:28:52;9.23;;;8.43;;
33160;SDS011;19522;45.656;11.302;2023-08-17T09:31:23;8.80;;;8.00;;
33160;SDS011;19522;45.656;11.302;2023-08-17T09:33:52;10.60;;;8.45;;
33160;SDS011;19522;45.656;11.302;2023-08-17T09:36:21;9.45;;;8.50;;
33160;SDS011;19522;45.656;11.302;2023-08-17T09:38:48;8.95;;;8.05;;
33160;SDS011;19522;45.656;11.302;2023-08-17T09:41:17;11.65;;;8.52;;
33160;SDS011;19522;45.656;11.302;2023-08-17T09:43:46;10.15;;;8.88;;
33160;SDS011;19522;45.656;11.302;2023-08-17T09:46:12;11.90;;;9.20;;
33160;SDS011;19522;45.656;11.302;2023-08-17T09:48:42;10.20;;;8.90;;
33160;SDS011;19522;45.656;11.302;2023-08-17T09:51:10;9.50;;;8.60;;
33160;SDS011;19522;45.656;11.302;2023-08-17T09:53:36;14.05;;;9.60;;
33160;SDS011;19522;45.656;11.302;2023-08-17T09:56:05;10.43;;;9.43;;
33160;SDS011;19522;45.656;11.302;2023-08-17T09:58:32;10.73;;;9.23;;
33160;SDS011;19522;45.656;11.302;2023-08-17T10:00:58;10.15;;;9.15;;
33160;SDS011;19522;45.656;11.302;2023-08-17T10:03:28;9.65;;;8.80;;
33160;SDS011;19522;45.656;11.302;2023-08-17T10:05:59;13.80;;;9.30;;
33160;SDS011;19522;45.656;11.302;2023-08-17T10:08:30;11.63;;;9.80;;
33160;SDS011;19522;45.656;11.302;2023-08-17T10:10:56;11.60;;;9.52;;
33160;SDS011;19522;45.656;11.302;2023-08-17T10:18:54;11.18;;;9.50;;
33160;SDS011;19522;45.656;11.302;2023-08-17T10:21:28;11.52;;;9.65;;
33160;SDS011;19522;45.656;11.302;2023-08-17T10:26:22;10.68;;;9.57;;
33160;SDS011;19522;45.656;11.302;2023-08-17T10:28:49;10.70;;;9.60;;
33160;SDS011;19522;45.656;11.302;2023-08-17T10:31:15;9.70;;;8.50;;
33160;SDS011;19522;45.656;11.302;2023-08-17T10:33:41;13.43;;;9.27;;
33160;SDS011;19522;45.656;11.302;2023-08-17T10:36:12;10.13;;;9.15;;
33160;SDS011;19522;45.656;11.302;2023-08-17T10:38:39;10.18;;;9.18;;
33160;SDS011;19522;45.656;11.302;2023-08-17T10:41:12;10.68;;;9.05;;
33160;SDS011;19522;45.656;11.302;2023-08-17T10:43:54;10.37;;;9.43;;
33160;SDS011;19522;45.656;11.302;2023-08-17T10:46:20;11.13;;;9.57;;
33160;SDS011;19522;45.656;11.302;2023-08-17T10:48:45;10.88;;;9.77;;
33160;SDS011;19522;45.656;11.302;2023-08-17T10:51:11;11.13;;;10.00;;
33160;SDS011;19522;45.656;11.302;2023-08-17T10:53:42;12.02;;;10.82;;
33160;SDS011;19522;45.656;11.302;2023-08-17T10:56:13;12.10;;;9.73;;
33160;SDS011;19522;45.656;11.302;2023-08-17T10:58:39;11.40;;;10.10;;
33160;SDS011;19522;45.656;11.302;2023-08-17T11:01:07;11.10;;;10.00;;
33160;SDS011;19522;45.656;11.302;2023-08-17T11:03:32;11.60;;;10.32;;
33160;SDS011;19522;45.656;11.302;2023-08-17T11:05:58;10.95;;;9.85;;
33160;SDS011;19522;45.656;11.302;2023-08-17T11:08:51;12.27;;;10.10;;
33160;SDS011;19522;45.656;11.302;2023-08-17T11:11:19;11.23;;;9.80;;
33160;SDS011;19522;45.656;11.302;2023-08-17T11:13:46;13.23;;;10.95;;
33160;SDS011;19522;45.656;11.302;2023-08-17T11:16:14;10.70;;;9.70;;
33160;SDS011;19522;45.656;11.302;2023-08-17T11:18:41;11.65;;;10.40;;
33160;SDS011;19522;45.656;11.302;2023-08-17T11:21:06;11.60;;;10.00;;
33160;SDS011;19522;45.656;11.302;2023-08-17T11:23:33;12.25;;;10.23;;
33160;SDS011;19522;45.656;11.302;2023-08-17T11:26:00;12.18;;;9.88;;
33160;SDS011;19522;45.656;11.302;2023-08-17T11:28:26;12.10;;;10.77;;
33160;SDS011;19522;45.656;11.302;2023-08-17T11:31:02;11.00;;;9.90;;
33160;SDS011;19522;45.656;11.302;2023-08-17T11:33:29;10.75;;;9.70;;
33160;SDS011;19522;45.656;11.302;2023-08-17T11:35:56;14.40;;;9.15;;
33160;SDS011;19522;45.656;11.302;2023-08-17T11:38:29;10.57;;;9.57;;
33160;SDS011;19522;45.656;11.302;2023-08-17T11:40:55;11.02;;;9.45;;
33160;SDS011;19522;45.656;11.302;2023-08-17T11:43:23;10.48;;;9.48;;
33160;SDS011;19522;45.656;11.302;2023-08-17T11:45:48;13.15;;;10.00;;
33160;SDS011;19522;45.656;11.302;2023-08-17T11:48:14;13.95;;;10.00;;
33160;SDS011;19522;45.656;11.302;2023-08-17T11:50:42;10.27;;;9.27;;
33160;SDS011;19522;45.656;11.302;2023-08-17T11:53:08;10.80;;;9.70;;
33160;SDS011;19522;45.656;11.302;2023-08-17T11:55:33;10.23;;;9.32;;
33160;SDS011;19522;45.656;11.302;2023-08-17T11:57:59;11.48;;;9.07;;
33160;SDS011;19522;45.656;11.302;2023-08-17T12:00:24;9.05;;;8.18;;
33160;SDS011;19522;45.656;11.302;2023-08-17T12:02:51;9.52;;;8.52;;
33160;SDS011;19522;45.656;11.302;2023-08-17T12:05:21;9.10;;;8.20;;
33160;SDS011;19522;45.656;11.302;2023-08-17T12:07:49;11.77;;;9.40;;
33160;SDS011;19522;45.656;11.302;2023-08-17T12:10:15;12.57;;;10.30;;
33160;SDS011;19522;45.656;11.302;2023-08-17T12:12:42;12.90;;;11.20;;
33160;SDS011;19522;45.656;11.302;2023-08-17T12:15:09;11.60;;;10.43;;
33160;SDS011;19522;45.656;11.302;2023-08-17T12:17:40;11.68;;;10.57;;
33160;SDS011;19522;45.656;11.302;2023-08-17T12:20:14;12.40;;;10.87;;
33160;SDS011;19522;45.656;11.302;2023-08-17T12:22:43;12.37;;;11.17;;
33160;SDS011;19522;45.656;11.302;2023-08-17T12:25:09;11.70;;;10.50;;
33160;SDS011;19522;45.656;11.302;2023-08-17T12:27:35;12.25;;;10.43;;
33160;SDS011;19522;45.656;11.302;2023-08-17T12:30:01;12.13;;;10.80;;
33160;SDS011;19522;45.656;11.302;2023-08-17T12:32:27;11.45;;;10.35;;
33160;SDS011;19522;45.656;11.302;2023-08-17T12:34:53;15.02;;;11.27;;
33160;SDS011;19522;45.656;11.302;2023-08-17T12:37:21;12.27;;;11.15;;
33160;SDS011;19522;45.656;11.302;2023-08-17T12:39:47;11.77;;;10.70;;
33160;SDS011;19522;45.656;11.302;2023-08-17T12:42:13;12.35;;;11.07;;
33160;SDS011;19522;45.656;11.302;2023-08-17T12:44:40;10.80;;;9.90;;
33160;SDS011;19522;45.656;11.302;2023-08-17T12:47:06;11.65;;;9.93;;
33160;SDS011;19522;45.656;11.302;2023-08-17T12:49:31;12.48;;;11.23;;
33160;SDS011;19522;45.656;11.302;2023-08-17T12:51:57;13.00;;;10.30;;
33160;SDS011;19522;45.656;11.302;2023-08-17T12:54:22;12.15;;;10.95;;
33160;SDS011;19522;45.656;11.302;2023-08-17T12:56:51;9.60;;;8.70;;
33160;SDS011;19522;45.656;11.302;2023-08-17T12:59:16;10.05;;;9.05;;
33160;SDS011;19522;45.656;11.302;2023-08-17T13:01:42;8.85;;;7.95;;
33160;SDS011;19522;45.656;11.302;2023-08-17T13:04:07;9.95;;;8.95;;
33160;SDS011;19522;45.656;11.302;2023-08-17T13:06:33;10.75;;;9.65;;
33160;SDS011;19522;45.656;11.302;2023-08-17T13:08:58;11.27;;;10.00;;
33160;SDS011;19522;45.656;11.302;2023-08-17T13:11:24;10.20;;;8.90;;
33160;SDS011;19522;45.656;11.302;2023-08-17T13:13:49;10.43;;;9.43;;
33160;SDS011;19522;45.656;11.302;2023-08-17T13:16:15;9.80;;;8.90;;
33160;SDS011;19522;45.656;11.302;2023-08-17T13:18:43;10.20;;;9.13;;
33160;SDS011;19522;45.656;11.302;2023-08-17T13:21:09;10.05;;;8.95;;
33160;SDS011;19522;45.656;11.302;2023-08-17T13:23:34;11.38;;;9.05;;
33160;SDS011;19522;45.656;11.302;2023-08-17T13:26:03;10.05;;;9.15;;
33160;SDS011;19522;45.656;11.302;2023-08-17T13:28:28;10.40;;;8.68;;
33160;SDS011;19522;45.656;11.302;2023-08-17T13:30:54;9.80;;;8.90;;
33160;SDS011;19522;45.656;11.302;2023-08-17T13:33:19;9.70;;;8.70;;
33160;SDS011;19522;45.656;11.302;2023-08-17T13:35:45;10.25;;;9.30;;
33160;SDS011;19522;45.656;11.302;2023-08-17T13:38:10;10.13;;;9.13;;
33160;SDS011;19522;45.656;11.302;2023-08-17T13:40:36;9.75;;;8.75;;
33160;SDS011;19522;45.656;11.302;2023-08-17T13:43:03;9.48;;;8.57;;
33160;SDS011;19522;45.656;11.302;2023-08-17T13:45:30;9.77;;;8.88;;
33160;SDS011;19522;45.656;11.302;2023-08-17T13:47:55;11.25;;;10.13;;
33160;SDS011;19522;45.656;11.302;2023-08-17T13:50:21;12.30;;;9.85;;
33160;SDS011;19522;45.656;11.302;2023-08-17T13:52:46;11.40;;;9.95;;
33160;SDS011;19522;45.656;11.302;2023-08-17T13:55:12;9.75;;;8.80;;
33160;SDS011;19522;45.656;11.302;2023-08-17T13:57:37;10.60;;;9.60;;
33160;SDS011;19522;45.656;11.302;2023-08-17T14:00:03;10.82;;;9.68;;
33160;SDS011;19522;45.656;11.302;2023-08-17T14:02:29;10.10;;;9.07;;
33160;SDS011;19522;45.656;11.302;2023-08-17T14:04:55;11.40;;;9.80;;
33160;SDS011;19522;45.656;11.302;2023-08-17T14:07:21;9.90;;;9.00;;
33160;SDS011;19522;45.656;11.302;2023-08-17T14:09:46;10.10;;;9.20;;
33160;SDS011;19522;45.656;11.302;2023-08-17T14:12:12;10.38;;;9.38;;
33160;SDS011;19522;45.656;11.302;2023-08-17T14:14:37;10.38;;;9.30;;
33160;SDS011;19522;45.656;11.302;2023-08-17T14:17:03;11.40;;;9.90;;
33160;SDS011;19522;45.656;11.302;2023-08-17T14:19:28;10.18;;;9.10;;
33160;SDS011;19522;45.656;11.302;2023-08-17T14:21:54;10.93;;;9.82;;
33160;SDS011;19522;45.656;11.302;2023-08-17T14:24:20;12.93;;;10.77;;
33160;SDS011;19522;45.656;11.302;2023-08-17T14:26:45;12.70;;;11.32;;
33160;SDS011;19522;45.656;11.302;2023-08-17T14:29:11;12.02;;;9.93;;